sensor_id;sensor_type;location;lat;lon;timestamp;pressure;altitude;pressure_sealevel;temperature;humidity
76998;BME280;65930;48.874;10.734;2024-01-16T00:02:08;95290.91;;;-1.89;86.70
76998;BME280;65930;48.874;10.734;2024-01-16T00:04:36;95292.25;;;-1.95;86.39
76998;BME280;65930;48.874;10.734;2024-01-16T00:07:04;95299.28;;;-1.94;86.38
76998;BME280;65930;48.874;10.734;2024-01-16T00:09:33;95295.31;;;-1.97;86.77
76998;BME280;65930;48.874;10.734;2024-01-16T00:12:01;95298.91;;;-2.05;86.84
76998;BME280;65930;48.874;10.734;2024-01-16T00:14:30;95294.44;;;-2.01;87.06
76998;BME280;65930;48.874;10.734;2024-01-16T00:16:58;95299.84;;;-2.01;87.09
76998;BME280;65930;48.874;10.734;2024-01-16T00:19:28;95293.97;;;-2.03;86.65
76998;BME280;65930;48.874;10.734;2024-01-16T00:21:56;95299.97;;;-1.97;86.89
76998;BME280;65930;48.874;10.734;2024-01-16T00:24:24;95304.00;;;-1.91;86.65
76998;BME280;65930;48.874;10.734;2024-01-16T00:26:52;95310.13;;;-2.06;86.67
76998;BME280;65930;48.874;10.734;2024-01-16T00:29:20;95306.63;;;-2.07;86.91
76998;BME280;65930;48.874;10.734;2024-01-16T00:31:48;95306.50;;;-2.10;86.33
76998;BME280;65930;48.874;10.734;2024-01-16T00:34:16;95303.69;;;-2.02;87.27
76998;BME280;65930;48.874;10.734;2024-01-16T00:36:45;95302.44;;;-2.16;87.08
76998;BME280;65930;48.874;10.734;2024-01-16T00:39:13;95309.56;;;-2.12;87.11
76998;BME280;65930;48.874;10.734;2024-01-16T00:41:41;95302.53;;;-2.13;87.21
76998;BME280;65930;48.874;10.734;2024-01-16T00:44:10;95291.69;;;-2.13;86.82
76998;BME280;65930;48.874;10.734;2024-01-16T00:46:38;95302.31;;;-2.20;86.65
76998;BME280;65930;48.874;10.734;2024-01-16T00:49:06;95301.06;;;-2.23;87.00
76998;BME280;65930;48.874;10.734;2024-01-16T00:51:36;95300.84;;;-2.30;86.42
76998;BME280;65930;48.874;10.734;2024-01-16T00:54:05;95308.06;;;-2.34;86.46
76998;BME280;65930;48.874;10.734;2024-01-16T00:56:35;95314.44;;;-2.50;87.33
76998;BME280;65930;48.874;10.734;2024-01-16T00:59:03;95311.84;;;-2.47;87.22
76998;BME280;65930;48.874;10.734;2024-01-16T01:01:31;95313.91;;;-2.44;86.67
76998;BME280;65930;48.874;10.734;2024-01-16T01:03:59;95314.66;;;-2.55;86.56
76998;BME280;65930;48.874;10.734;2024-01-16T01:06:27;95311.34;;;-2.73;87.49
76998;BME280;65930;48.874;10.734;2024-01-16T01:08:56;95310.13;;;-2.63;87.31
76998;BME280;65930;48.874;10.734;2024-01-16T01:11:27;95335.41;;;-2.72;87.37
76998;BME280;65930;48.874;10.734;2024-01-16T01:13:55;95323.91;;;-2.56;87.41
76998;BME280;65930;48.874;10.734;2024-01-16T01:16:23;95326.31;;;-2.55;86.94
76998;BME280;65930;48.874;10.734;2024-01-16T01:18:51;95319.97;;;-2.59;86.93
76998;BME280;65930;48.874;10.734;2024-01-16T01:21:19;95333.84;;;-2.60;86.96
76998;BME280;65930;48.874;10.734;2024-01-16T01:23:47;95333.16;;;-2.70;87.36
76998;BME280;65930;48.874;10.734;2024-01-16T01:26:15;95339.94;;;-2.63;87.25
76998;BME280;65930;48.874;10.734;2024-01-16T01:28:46;95339.44;;;-2.78;87.70
76998;BME280;65930;48.874;10.734;2024-01-16T01:31:14;95347.69;;;-2.74;87.70
76998;BME280;65930;48.874;10.734;2024-01-16T01:33:42;95345.19;;;-2.79;87.90
76998;BME280;65930;48.874;10.734;2024-01-16T01:36:10;95352.75;;;-2.85;87.92
76998;BME280;65930;48.874;10.734;2024-01-16T01:38:38;95346.38;;;-2.89;88.17
76998;BME280;65930;48.874;10.734;2024-01-16T01:41:06;95346.19;;;-2.84;87.80
76998;BME280;65930;48.874;10.734;2024-01-16T01:43:34;95355.19;;;-2.92;87.89
76998;BME280;65930;48.874;10.734;2024-01-16T01:46:09;95352.88;;;-3.02;88.23
76998;BME280;65930;48.874;10.734;2024-01-16T01:48:38;95355.47;;;-3.05;88.35
76998;BME280;65930;48.874;10.734;2024-01-16T01:51:08;95352.56;;;-3.00;88.12
76998;BME280;65930;48.874;10.734;2024-01-16T01:53:38;95350.66;;;-3.00;88.61
76998;BME280;65930;48.874;10.734;2024-01-16T01:56:10;95357.69;;;-3.07;88.46
76998;BME280;65930;48.874;10.734;2024-01-16T01:58:41;95355.66;;;-3.11;88.84
76998;BME280;65930;48.874;10.734;2024-01-16T02:01:14;95350.53;;;-3.03;88.56
76998;BME280;65930;48.874;10.734;2024-01-16T02:03:45;95354.88;;;-3.11;88.84
76998;BME280;65930;48.874;10.734;2024-01-16T02:06:14;95345.63;;;-3.10;89.12
76998;BME280;65930;48.874;10.734;2024-01-16T02:08:44;95344.03;;;-3.11;89.14
76998;BME280;65930;48.874;10.734;2024-01-16T02:11:13;95352.28;;;-3.28;88.89
76998;BME280;65930;48.874;10.734;2024-01-16T02:13:41;95337.63;;;-3.27;89.42
76998;BME280;65930;48.874;10.734;2024-01-16T02:16:19;95337.63;;;-3.27;89.58
76998;BME280;65930;48.874;10.734;2024-01-16T02:18:47;95341.38;;;-3.40;89.39
76998;BME280;65930;48.874;10.734;2024-01-16T02:21:18;95349.97;;;-3.38;89.44
76998;BME280;65930;48.874;10.734;2024-01-16T02:23:49;95343.69;;;-3.51;89.79
76998;BME280;65930;48.874;10.734;2024-01-16T02:26:18;95344.88;;;-3.40;89.25
76998;BME280;65930;48.874;10.734;2024-01-16T02:28:46;95342.97;;;-3.39;88.94
76998;BME280;65930;48.874;10.734;2024-01-16T02:31:14;95345.19;;;-3.62;89.97
76998;BME280;65930;48.874;10.734;2024-01-16T02:33:43;95341.66;;;-3.63;90.34
76998;BME280;65930;48.874;10.734;2024-01-16T02:36:12;95339.44;;;-3.61;90.25
76998;BME280;65930;48.874;10.734;2024-01-16T02:38:40;95338.97;;;-3.63;89.97
76998;BME280;65930;48.874;10.734;2024-01-16T02:41:15;95342.03;;;-3.64;89.84
76998;BME280;65930;48.874;10.734;2024-01-16T02:43:44;95344.25;;;-3.66;89.52
76998;BME280;65930;48.874;10.734;2024-01-16T02:46:12;95349.78;;;-3.63;89.74
76998;BME280;65930;48.874;10.734;2024-01-16T02:48:40;95347.81;;;-3.53;88.87
76998;BME280;65930;48.874;10.734;2024-01-16T02:51:09;95348.63;;;-3.53;89.26
76998;BME280;65930;48.874;10.734;2024-01-16T02:53:37;95359.44;;;-3.53;88.91
76998;BME280;65930;48.874;10.734;2024-01-16T02:56:06;95350.50;;;-3.24;87.93
76998;BME280;65930;48.874;10.734;2024-01-16T02:58:36;95357.41;;;-3.35;88.46
76998;BME280;65930;48.874;10.734;2024-01-16T03:01:04;95361.31;;;-3.45;87.90
76998;BME280;65930;48.874;10.734;2024-01-16T03:03:33;95366.31;;;-3.56;89.29
76998;BME280;65930;48.874;10.734;2024-01-16T03:06:02;95364.91;;;-3.32;88.43
76998;BME280;65930;48.874;10.734;2024-01-16T03:08:30;95373.59;;;-3.47;88.10
76998;BME280;65930;48.874;10.734;2024-01-16T03:10:58;95374.34;;;-3.68;88.15
76998;BME280;65930;48.874;10.734;2024-01-16T03:13:26;95377.72;;;-3.71;89.27
76998;BME280;65930;48.874;10.734;2024-01-16T03:15:55;95387.63;;;-3.45;87.52
76998;BME280;65930;48.874;10.734;2024-01-16T03:18:23;95383.38;;;-3.34;87.27
76998;BME280;65930;48.874;10.734;2024-01-16T03:20:51;95372.28;;;-3.71;88.60
76998;BME280;65930;48.874;10.734;2024-01-16T03:23:19;95387.44;;;-3.49;87.96
76998;BME280;65930;48.874;10.734;2024-01-16T03:25:47;95377.31;;;-3.90;88.63
76998;BME280;65930;48.874;10.734;2024-01-16T03:28:15;95383.38;;;-3.64;88.46
76998;BME280;65930;48.874;10.734;2024-01-16T03:30:45;95392.31;;;-3.63;87.47
76998;BME280;65930;48.874;10.734;2024-01-16T03:33:14;95391.25;;;-3.71;88.46
76998;BME280;65930;48.874;10.734;2024-01-16T03:35:43;95383.31;;;-3.76;88.28
76998;BME280;65930;48.874;10.734;2024-01-16T03:38:11;95392.97;;;-3.66;88.60
76998;BME280;65930;48.874;10.734;2024-01-16T03:40:39;95384.09;;;-4.13;89.71
76998;BME280;65930;48.874;10.734;2024-01-16T03:43:07;95393.28;;;-3.68;87.87
76998;BME280;65930;48.874;10.734;2024-01-16T03:45:35;95379.97;;;-4.19;90.02
76998;BME280;65930;48.874;10.734;2024-01-16T03:48:04;95382.25;;;-4.38;91.48
76998;BME280;65930;48.874;10.734;2024-01-16T03:50:34;95379.47;;;-4.13;90.30
76998;BME280;65930;48.874;10.734;2024-01-16T03:53:03;95382.69;;;-4.28;91.07
76998;BME280;65930;48.874;10.734;2024-01-16T03:55:31;95371.50;;;-4.09;91.06
76998;BME280;65930;48.874;10.734;2024-01-16T03:57:59;95371.81;;;-4.02;91.44
76998;BME280;65930;48.874;10.734;2024-01-16T04:00:27;95373.53;;;-3.68;90.40
76998;BME280;65930;48.874;10.734;2024-01-16T04:02:55;95376.66;;;-3.87;90.40
76998;BME280;65930;48.874;10.734;2024-01-16T04:05:24;95372.22;;;-3.83;88.44
76998;BME280;65930;48.874;10.734;2024-01-16T04:07:53;95367.38;;;-4.15;89.92
76998;BME280;65930;48.874;10.734;2024-01-16T04:10:21;95372.38;;;-3.88;89.61
76998;BME280;65930;48.874;10.734;2024-01-16T04:12:49;95371.78;;;-3.93;88.80
76998;BME280;65930;48.874;10.734;2024-01-16T04:15:17;95376.59;;;-3.70;88.47
76998;BME280;65930;48.874;10.734;2024-01-16T04:17:49;95388.00;;;-3.93;87.82
76998;BME280;65930;48.874;10.734;2024-01-16T04:20:17;95380.59;;;-4.14;90.39
76998;BME280;65930;48.874;10.734;2024-01-16T04:22:45;95380.34;;;-3.91;90.08
76998;BME280;65930;48.874;10.734;2024-01-16T04:25:15;95375.63;;;-4.03;89.19
76998;BME280;65930;48.874;10.734;2024-01-16T04:27:43;95373.88;;;-4.08;89.50
76998;BME280;65930;48.874;10.734;2024-01-16T04:30:12;95372.44;;;-4.05;88.62
76998;BME280;65930;48.874;10.734;2024-01-16T04:32:40;95377.25;;;-4.11;90.58
76998;BME280;65930;48.874;10.734;2024-01-16T04:35:09;95384.16;;;-4.48;91.27
76998;BME280;65930;48.874;10.734;2024-01-16T04:37:37;95386.31;;;-4.15;91.47
76998;BME280;65930;48.874;10.734;2024-01-16T04:40:06;95401.59;;;-4.11;90.81
76998;BME280;65930;48.874;10.734;2024-01-16T04:42:35;95400.81;;;-4.20;90.00
76998;BME280;65930;48.874;10.734;2024-01-16T04:45:04;95396.75;;;-3.88;89.51
76998;BME280;65930;48.874;10.734;2024-01-16T04:47:32;95408.09;;;-4.03;90.28
76998;BME280;65930;48.874;10.734;2024-01-16T04:50:01;95412.06;;;-4.09;90.20
76998;BME280;65930;48.874;10.734;2024-01-16T04:52:29;95416.00;;;-4.70;91.21
76998;BME280;65930;48.874;10.734;2024-01-16T04:54:57;95415.00;;;-4.31;90.04
76998;BME280;65930;48.874;10.734;2024-01-16T04:57:25;95399.97;;;-4.84;93.77
76998;BME280;65930;48.874;10.734;2024-01-16T04:59:55;95403.28;;;-4.53;92.94
76998;BME280;65930;48.874;10.734;2024-01-16T05:02:23;95402.97;;;-4.60;93.07
76998;BME280;65930;48.874;10.734;2024-01-16T05:04:51;95408.66;;;-4.35;92.34
76998;BME280;65930;48.874;10.734;2024-01-16T05:07:19;95400.91;;;-4.63;92.06
76998;BME280;65930;48.874;10.734;2024-01-16T05:09:47;95391.66;;;-4.62;91.92
76998;BME280;65930;48.874;10.734;2024-01-16T05:12:16;95393.84;;;-4.38;92.47
76998;BME280;65930;48.874;10.734;2024-01-16T05:14:44;95394.03;;;-4.34;92.98
76998;BME280;65930;48.874;10.734;2024-01-16T05:17:13;95395.84;;;-3.71;89.67
76998;BME280;65930;48.874;10.734;2024-01-16T05:19:41;95399.66;;;-4.10;91.26
76998;BME280;65930;48.874;10.734;2024-01-16T05:22:10;95392.84;;;-4.16;90.20
76998;BME280;65930;48.874;10.734;2024-01-16T05:24:38;95387.88;;;-3.97;90.89
76998;BME280;65930;48.874;10.734;2024-01-16T05:27:06;95375.88;;;-4.25;92.19
76998;BME280;65930;48.874;10.734;2024-01-16T05:29:35;95373.34;;;-4.30;92.72
76998;BME280;65930;48.874;10.734;2024-01-16T05:32:08;95387.03;;;-3.89;91.76
76998;BME280;65930;48.874;10.734;2024-01-16T05:34:38;95391.44;;;-3.46;90.61
76998;BME280;65930;48.874;10.734;2024-01-16T05:37:06;95394.31;;;-3.22;88.81
76998;BME280;65930;48.874;10.734;2024-01-16T05:39:34;95395.56;;;-3.20;89.03
76998;BME280;65930;48.874;10.734;2024-01-16T05:42:04;95390.41;;;-3.33;89.49
76998;BME280;65930;48.874;10.734;2024-01-16T05:44:32;95386.09;;;-3.64;89.41
76998;BME280;65930;48.874;10.734;2024-01-16T05:47:00;95404.31;;;-3.43;89.12
76998;BME280;65930;48.874;10.734;2024-01-16T05:49:28;95407.84;;;-3.22;88.25
76998;BME280;65930;48.874;10.734;2024-01-16T05:51:57;95417.66;;;-3.09;88.11
76998;BME280;65930;48.874;10.734;2024-01-16T05:54:25;95417.25;;;-2.99;88.17
76998;BME280;65930;48.874;10.734;2024-01-16T05:56:53;95397.78;;;-3.42;88.51
76998;BME280;65930;48.874;10.734;2024-01-16T05:59:22;95404.94;;;-3.17;87.52
76998;BME280;65930;48.874;10.734;2024-01-16T06:01:50;95398.50;;;-3.04;85.90
76998;BME280;65930;48.874;10.734;2024-01-16T06:04:18;95406.19;;;-2.94;85.70
76998;BME280;65930;48.874;10.734;2024-01-16T06:06:46;95404.84;;;-3.00;85.61
76998;BME280;65930;48.874;10.734;2024-01-16T06:09:16;95401.47;;;-3.18;85.36
76998;BME280;65930;48.874;10.734;2024-01-16T06:11:45;95419.63;;;-3.18;84.39
76998;BME280;65930;48.874;10.734;2024-01-16T06:14:14;95415.06;;;-3.56;86.87
76998;BME280;65930;48.874;10.734;2024-01-16T06:16:48;95412.13;;;-3.21;84.99
76998;BME280;65930;48.874;10.734;2024-01-16T06:19:17;95410.19;;;-3.41;84.73
76998;BME280;65930;48.874;10.734;2024-01-16T06:21:45;95397.22;;;-3.27;85.55
76998;BME280;65930;48.874;10.734;2024-01-16T06:24:13;95394.38;;;-3.10;84.56
76998;BME280;65930;48.874;10.734;2024-01-16T06:26:43;95394.91;;;-2.96;82.74
76998;BME280;65930;48.874;10.734;2024-01-16T06:29:11;95395.97;;;-3.09;84.08
76998;BME280;65930;48.874;10.734;2024-01-16T06:31:54;95398.34;;;-2.87;83.52
76998;BME280;65930;48.874;10.734;2024-01-16T06:34:22;95402.38;;;-2.93;82.66
76998;BME280;65930;48.874;10.734;2024-01-16T06:36:50;95397.03;;;-2.81;83.27
76998;BME280;65930;48.874;10.734;2024-01-16T06:39:18;95394.09;;;-3.17;83.87
76998;BME280;65930;48.874;10.734;2024-01-16T06:41:47;95399.44;;;-3.29;85.73
76998;BME280;65930;48.874;10.734;2024-01-16T06:44:15;95393.38;;;-2.64;83.45
76998;BME280;65930;48.874;10.734;2024-01-16T06:46:43;95390.91;;;-2.90;81.85
76998;BME280;65930;48.874;10.734;2024-01-16T06:49:11;95397.03;;;-3.01;82.59
76998;BME280;65930;48.874;10.734;2024-01-16T06:51:39;95393.78;;;-3.36;83.89
76998;BME280;65930;48.874;10.734;2024-01-16T06:54:07;95394.06;;;-3.67;84.41
76998;BME280;65930;48.874;10.734;2024-01-16T06:56:35;95391.94;;;-3.53;84.61
76998;BME280;65930;48.874;10.734;2024-01-16T06:59:05;95393.66;;;-3.48;84.08
76998;BME280;65930;48.874;10.734;2024-01-16T07:01:37;95392.34;;;-3.72;85.80
76998;BME280;65930;48.874;10.734;2024-01-16T07:04:05;95401.22;;;-3.63;83.43
76998;BME280;65930;48.874;10.734;2024-01-16T07:06:34;95387.88;;;-3.68;84.48
76998;BME280;65930;48.874;10.734;2024-01-16T07:09:02;95394.00;;;-3.79;84.65
76998;BME280;65930;48.874;10.734;2024-01-16T07:11:32;95393.91;;;-4.00;85.43
76998;BME280;65930;48.874;10.734;2024-01-16T07:14:00;95398.38;;;-4.04;85.32
76998;BME280;65930;48.874;10.734;2024-01-16T07:16:29;95398.97;;;-3.90;84.87
76998;BME280;65930;48.874;10.734;2024-01-16T07:18:57;95402.31;;;-3.55;83.08
76998;BME280;65930;48.874;10.734;2024-01-16T07:21:25;95403.78;;;-4.04;84.68
76998;BME280;65930;48.874;10.734;2024-01-16T07:23:55;95405.31;;;-3.86;84.24
76998;BME280;65930;48.874;10.734;2024-01-16T07:26:24;95405.03;;;-3.93;83.69
76998;BME280;65930;48.874;10.734;2024-01-16T07:28:52;95424.56;;;-3.79;83.75
76998;BME280;65930;48.874;10.734;2024-01-16T07:31:20;95424.78;;;-3.63;82.76
76998;BME280;65930;48.874;10.734;2024-01-16T07:33:49;95424.28;;;-3.57;82.53
76998;BME280;65930;48.874;10.734;2024-01-16T07:36:17;95418.78;;;-3.39;82.13
76998;BME280;65930;48.874;10.734;2024-01-16T07:38:45;95421.25;;;-3.93;83.48
76998;BME280;65930;48.874;10.734;2024-01-16T07:41:15;95426.16;;;-3.48;82.87
76998;BME280;65930;48.874;10.734;2024-01-16T07:43:43;95433.97;;;-3.85;83.28
76998;BME280;65930;48.874;10.734;2024-01-16T07:46:15;95422.16;;;-3.42;82.21
76998;BME280;65930;48.874;10.734;2024-01-16T07:48:44;95421.28;;;-3.34;80.98
76998;BME280;65930;48.874;10.734;2024-01-16T07:51:14;95430.63;;;-3.52;81.62
76998;BME280;65930;48.874;10.734;2024-01-16T07:53:42;95433.34;;;-3.23;80.64
76998;BME280;65930;48.874;10.734;2024-01-16T07:56:10;95424.13;;;-3.22;80.13
76998;BME280;65930;48.874;10.734;2024-01-16T07:58:38;95418.59;;;-3.34;80.83
76998;BME280;65930;48.874;10.734;2024-01-16T08:01:06;95424.00;;;-3.05;79.78
76998;BME280;65930;48.874;10.734;2024-01-16T08:03:34;95421.34;;;-3.14;79.58
76998;BME280;65930;48.874;10.734;2024-01-16T08:06:02;95415.38;;;-3.07;78.71
76998;BME280;65930;48.874;10.734;2024-01-16T08:08:32;95415.63;;;-3.21;78.81
76998;BME280;65930;48.874;10.734;2024-01-16T08:11:01;95408.00;;;-2.98;79.48
76998;BME280;65930;48.874;10.734;2024-01-16T08:13:29;95393.59;;;-3.11;78.75
76998;BME280;65930;48.874;10.734;2024-01-16T08:15:57;95402.56;;;-2.98;78.26
76998;BME280;65930;48.874;10.734;2024-01-16T08:18:25;95403.91;;;-3.04;78.50
76998;BME280;65930;48.874;10.734;2024-01-16T08:20:53;95409.59;;;-2.97;77.63
76998;BME280;65930;48.874;10.734;2024-01-16T08:23:21;95395.97;;;-3.09;78.10
76998;BME280;65930;48.874;10.734;2024-01-16T08:25:51;95415.75;;;-3.08;78.32
76998;BME280;65930;48.874;10.734;2024-01-16T08:28:19;95404.91;;;-3.08;78.91
76998;BME280;65930;48.874;10.734;2024-01-16T08:30:49;95410.97;;;-3.12;78.04
76998;BME280;65930;48.874;10.734;2024-01-16T08:33:17;95414.66;;;-3.16;78.59
76998;BME280;65930;48.874;10.734;2024-01-16T08:35:56;95424.56;;;-3.20;78.29
76998;BME280;65930;48.874;10.734;2024-01-16T08:38:25;95430.84;;;-3.07;78.00
76998;BME280;65930;48.874;10.734;2024-01-16T08:40:54;95431.00;;;-3.04;77.56
76998;BME280;65930;48.874;10.734;2024-01-16T08:43:22;95424.53;;;-2.91;77.85
76998;BME280;65930;48.874;10.734;2024-01-16T08:45:50;95423.06;;;-2.88;77.55
76998;BME280;65930;48.874;10.734;2024-01-16T08:48:18;95426.75;;;-3.14;77.89
76998;BME280;65930;48.874;10.734;2024-01-16T08:50:46;95427.16;;;-3.03;78.35
76998;BME280;65930;48.874;10.734;2024-01-16T08:53:14;95425.28;;;-3.11;77.84
76998;BME280;65930;48.874;10.734;2024-01-16T08:55:42;95418.25;;;-3.03;78.32
76998;BME280;65930;48.874;10.734;2024-01-16T08:58:11;95424.78;;;-2.84;77.24
76998;BME280;65930;48.874;10.734;2024-01-16T09:00:39;95419.75;;;-2.94;77.69
76998;BME280;65930;48.874;10.734;2024-01-16T09:03:08;95416.97;;;-2.44;75.40
76998;BME280;65930;48.874;10.734;2024-01-16T09:05:36;95421.69;;;-2.20;75.01
76998;BME280;65930;48.874;10.734;2024-01-16T09:08:06;95414.13;;;-2.14;75.00
76998;BME280;65930;48.874;10.734;2024-01-16T09:10:39;95414.19;;;-2.35;75.60
76998;BME280;65930;48.874;10.734;2024-01-16T09:13:07;95408.25;;;-2.16;74.29
76998;BME280;65930;48.874;10.734;2024-01-16T09:15:36;95403.50;;;-2.52;75.42
76998;BME280;65930;48.874;10.734;2024-01-16T09:18:04;95415.56;;;-2.29;74.61
76998;BME280;65930;48.874;10.734;2024-01-16T09:20:32;95400.34;;;-2.09;74.53
76998;BME280;65930;48.874;10.734;2024-01-16T09:23:01;95411.75;;;-2.16;73.84
76998;BME280;65930;48.874;10.734;2024-01-16T09:25:29;95411.75;;;-2.16;74.60
76998;BME280;65930;48.874;10.734;2024-01-16T09:27:57;95411.13;;;-2.34;74.39
76998;BME280;65930;48.874;10.734;2024-01-16T09:30:25;95415.50;;;-2.41;75.22
76998;BME280;65930;48.874;10.734;2024-01-16T09:32:55;95426.63;;;-2.34;75.34
76998;BME280;65930;48.874;10.734;2024-01-16T09:35:23;95424.47;;;-2.61;76.15
76998;BME280;65930;48.874;10.734;2024-01-16T09:37:51;95423.25;;;-2.19;74.51
76998;BME280;65930;48.874;10.734;2024-01-16T09:40:19;95418.53;;;-2.10;74.37
76998;BME280;65930;48.874;10.734;2024-01-16T09:42:48;95430.84;;;-1.80;72.87
76998;BME280;65930;48.874;10.734;2024-01-16T09:45:19;95417.09;;;-1.95;72.27
76998;BME280;65930;48.874;10.734;2024-01-16T09:47:50;95417.75;;;-2.10;73.48
76998;BME280;65930;48.874;10.734;2024-01-16T09:50:21;95429.50;;;-1.73;72.91
76998;BME280;65930;48.874;10.734;2024-01-16T09:52:50;95422.94;;;-1.60;71.46
76998;BME280;65930;48.874;10.734;2024-01-16T09:55:18;95426.00;;;-1.62;72.13
76998;BME280;65930;48.874;10.734;2024-01-16T09:57:46;95432.16;;;-1.98;72.87
76998;BME280;65930;48.874;10.734;2024-01-16T10:00:18;95422.16;;;-1.61;72.35
76998;BME280;65930;48.874;10.734;2024-01-16T10:02:47;95437.00;;;-1.91;73.19
76998;BME280;65930;48.874;10.734;2024-01-16T10:05:15;95424.50;;;-1.71;73.46
76998;BME280;65930;48.874;10.734;2024-01-16T10:07:45;95442.69;;;-1.96;74.02
76998;BME280;65930;48.874;10.734;2024-01-16T10:10:13;95439.56;;;-1.74;72.69
76998;BME280;65930;48.874;10.734;2024-01-16T10:12:53;95450.84;;;-1.84;73.03
76998;BME280;65930;48.874;10.734;2024-01-16T10:15:22;95448.81;;;-1.87;73.07
76998;BME280;65930;48.874;10.734;2024-01-16T10:17:50;95446.44;;;-1.77;73.27
76998;BME280;65930;48.874;10.734;2024-01-16T10:20:32;95436.19;;;-1.47;73.07
76998;BME280;65930;48.874;10.734;2024-01-16T10:23:02;95440.03;;;-1.60;72.79
76998;BME280;65930;48.874;10.734;2024-01-16T10:25:31;95437.44;;;-1.56;72.53
76998;BME280;65930;48.874;10.734;2024-01-16T10:28:03;95438.34;;;-1.52;72.49
76998;BME280;65930;48.874;10.734;2024-01-16T10:30:34;95420.00;;;-1.55;71.67
76998;BME280;65930;48.874;10.734;2024-01-16T10:33:17;95427.34;;;-1.44;71.96
76998;BME280;65930;48.874;10.734;2024-01-16T10:35:45;95416.16;;;-1.42;72.05
76998;BME280;65930;48.874;10.734;2024-01-16T10:38:21;95415.78;;;-1.16;71.70
76998;BME280;65930;48.874;10.734;2024-01-16T10:41:04;95415.69;;;-1.08;71.09
76998;BME280;65930;48.874;10.734;2024-01-16T10:43:32;95403.69;;;-1.19;70.96
76998;BME280;65930;48.874;10.734;2024-01-16T10:46:07;95396.59;;;-1.36;71.04
76998;BME280;65930;48.874;10.734;2024-01-16T10:48:36;95391.25;;;-1.32;72.04
76998;BME280;65930;48.874;10.734;2024-01-16T10:51:06;95397.13;;;-1.18;71.25
76998;BME280;65930;48.874;10.734;2024-01-16T10:53:37;95392.59;;;-1.26;72.38
76998;BME280;65930;48.874;10.734;2024-01-16T10:56:10;95389.00;;;-0.78;70.83
76998;BME280;65930;48.874;10.734;2024-01-16T10:58:41;95387.91;;;-0.89;70.90
76998;BME280;65930;48.874;10.734;2024-01-16T11:01:11;95376.91;;;-0.80;70.83
76998;BME280;65930;48.874;10.734;2024-01-16T11:03:46;95373.47;;;-0.77;69.79
76998;BME280;65930;48.874;10.734;2024-01-16T11:06:17;95383.97;;;-0.64;69.54
76998;BME280;65930;48.874;10.734;2024-01-16T11:08:48;95383.22;;;-0.76;69.39
76998;BME280;65930;48.874;10.734;2024-01-16T11:11:18;95383.00;;;-0.43;69.57
76998;BME280;65930;48.874;10.734;2024-01-16T11:13:47;95394.75;;;-0.67;70.14
76998;BME280;65930;48.874;10.734;2024-01-16T11:16:17;95392.41;;;-0.81;70.12
76998;BME280;65930;48.874;10.734;2024-01-16T11:18:46;95388.16;;;-1.06;71.37
76998;BME280;65930;48.874;10.734;2024-01-16T11:21:16;95381.94;;;-1.07;70.20
76998;BME280;65930;48.874;10.734;2024-01-16T11:23:46;95373.47;;;-0.77;70.14
76998;BME280;65930;48.874;10.734;2024-01-16T11:26:25;95364.59;;;-0.62;69.59
76998;BME280;65930;48.874;10.734;2024-01-16T11:28:53;95363.56;;;-0.58;69.60
76998;BME280;65930;48.874;10.734;2024-01-16T11:31:28;95372.50;;;-0.97;69.53
76998;BME280;65930;48.874;10.734;2024-01-16T11:33:56;95362.19;;;-0.79;70.98
76998;BME280;65930;48.874;10.734;2024-01-16T11:36:51;95355.50;;;-0.54;68.73
76998;BME280;65930;48.874;10.734;2024-01-16T11:39:25;95360.03;;;-0.58;69.47
76998;BME280;65930;48.874;10.734;2024-01-16T11:41:55;95348.38;;;-0.59;69.14
76998;BME280;65930;48.874;10.734;2024-01-16T11:44:45;95344.13;;;-0.72;68.92
76998;BME280;65930;48.874;10.734;2024-01-16T11:47:17;95345.50;;;-0.50;68.44
76998;BME280;65930;48.874;10.734;2024-01-16T11:49:46;95334.50;;;-0.26;68.78
76998;BME280;65930;48.874;10.734;2024-01-16T11:52:14;95329.06;;;-0.26;67.40
76998;BME280;65930;48.874;10.734;2024-01-16T11:54:44;95319.06;;;-0.22;67.28
76998;BME280;65930;48.874;10.734;2024-01-16T11:57:34;95322.34;;;-0.44;67.67
76998;BME280;65930;48.874;10.734;2024-01-16T12:00:05;95308.69;;;0.31;66.06
76998;BME280;65930;48.874;10.734;2024-01-16T12:02:49;95298.41;;;0.40;64.68
76998;BME280;65930;48.874;10.734;2024-01-16T12:05:19;95295.00;;;0.27;65.20
76998;BME280;65930;48.874;10.734;2024-01-16T12:07:48;95293.75;;;-0.38;66.29
76998;BME280;65930;48.874;10.734;2024-01-16T12:10:19;95285.50;;;-0.26;67.11
76998;BME280;65930;48.874;10.734;2024-01-16T12:12:49;95296.53;;;-0.50;66.84
76998;BME280;65930;48.874;10.734;2024-01-16T12:15:19;95289.47;;;-0.08;66.21
76998;BME280;65930;48.874;10.734;2024-01-16T12:17:54;95291.47;;;-0.05;65.56
76998;BME280;65930;48.874;10.734;2024-01-16T12:20:24;95297.56;;;0.05;66.11
76998;BME280;65930;48.874;10.734;2024-01-16T12:22:58;95298.88;;;-0.21;66.31
76998;BME280;65930;48.874;10.734;2024-01-16T12:25:28;95301.88;;;-0.54;67.59
76998;BME280;65930;48.874;10.734;2024-01-16T12:28:20;95299.00;;;-0.61;67.59
76998;BME280;65930;48.874;10.734;2024-01-16T12:30:59;95277.59;;;-0.31;67.14
76998;BME280;65930;48.874;10.734;2024-01-16T12:33:28;95289.19;;;-0.34;67.71
76998;BME280;65930;48.874;10.734;2024-01-16T12:36:02;95276.06;;;-0.01;66.79
76998;BME280;65930;48.874;10.734;2024-01-16T12:38:32;95268.47;;;-0.23;66.59
76998;BME280;65930;48.874;10.734;2024-01-16T12:41:08;95274.25;;;-0.40;67.83
76998;BME280;65930;48.874;10.734;2024-01-16T12:43:37;95260.19;;;-0.42;67.83
76998;BME280;65930;48.874;10.734;2024-01-16T12:46:05;95257.56;;;-0.54;67.50
76998;BME280;65930;48.874;10.734;2024-01-16T12:48:34;95257.31;;;-0.49;67.87
76998;BME280;65930;48.874;10.734;2024-01-16T12:51:08;95251.78;;;-0.37;67.01
76998;BME280;65930;48.874;10.734;2024-01-16T12:53:39;95255.84;;;-0.31;66.35
76998;BME280;65930;48.874;10.734;2024-01-16T12:56:08;95255.03;;;-0.31;66.04
76998;BME280;65930;48.874;10.734;2024-01-16T12:58:38;95258.13;;;-0.33;66.33
76998;BME280;65930;48.874;10.734;2024-01-16T13:01:24;95252.94;;;-0.22;66.74
76998;BME280;65930;48.874;10.734;2024-01-16T13:04:05;95247.25;;;-0.33;64.93